sensor_id;sensor_type;location;lat;lon;timestamp;P1;durP1;ratioP1;P2;durP2;ratioP2
35606;SDS011;21729;58.392;15.656;2023-05-10T00:01:21;4.75;;;3.40;;
35606;SDS011;21729;58.392;15.656;2023-05-10T00:03:48;5.07;;;3.28;;
35606;SDS011;21729;58.392;15.656;2023-05-10T00:06:15;4.43;;;3.30;;
35606;SDS011;21729;58.392;15.656;2023-05-10T00:08:42;6.25;;;3.53;;
35606;SDS011;21729;58.392;15.656;2023-05-10T00:11:11;4.30;;;3.38;;
35606;SDS011;21729;58.392;15.656;2023-05-10T00:13:38;5.70;;;3.42;;
35606;SDS011;21729;58.392;15.656;2023-05-10T00:16:06;5.18;;;3.20;;
35606;SDS011;21729;58.392;15.656;2023-05-10T00:18:33;5.00;;;3.20;;
35606;SDS011;21729;58.392;15.656;2023-05-10T00:21:00;5.07;;;3.30;;
35606;SDS011;21729;58.392;15.656;2023-05-10T00:23:27;5.53;;;3.30;;
35606;SDS011;21729;58.392;15.656;2023-05-10T00:25:54;4.47;;;3.43;;
35606;SDS011;21729;58.392;15.656;2023-05-10T00:28:23;5.95;;;3.70;;
35606;SDS011;21729;58.392;15.656;2023-05-10T00:30:50;6.25;;;3.30;;
35606;SDS011;21729;58.392;15.656;2023-05-10T00:33:17;4.68;;;3.70;;
35606;SDS011;21729;58.392;15.656;2023-05-10T00:35:45;4.78;;;3.63;;
35606;SDS011;21729;58.392;15.656;2023-05-10T00:38:12;5.25;;;3.50;;
35606;SDS011;21729;58.392;15.656;2023-05-10T00:40:39;5.40;;;3.67;;
35606;SDS011;21729;58.392;15.656;2023-05-10T00:43:07;5.18;;;3.85;;
35606;SDS011;21729;58.392;15.656;2023-05-10T00:45:35;4.88;;;3.55;;
35606;SDS011;21729;58.392;15.656;2023-05-10T00:48:03;6.85;;;3.70;;
35606;SDS011;21729;58.392;15.656;2023-05-10T00:50:31;5.80;;;3.58;;
35606;SDS011;21729;58.392;15.656;2023-05-10T00:52:59;4.33;;;3.40;;
35606;SDS011;21729;58.392;15.656;2023-05-10T00:55:28;5.93;;;3.40;;
35606;SDS011;21729;58.392;15.656;2023-05-10T00:57:56;5.43;;;3.50;;
35606;SDS011;21729;58.392;15.656;2023-05-10T01:00:24;4.70;;;3.88;;
35606;SDS011;21729;58.392;15.656;2023-05-10T01:02:53;5.60;;;3.60;;
35606;SDS011;21729;58.392;15.656;2023-05-10T01:05:20;5.65;;;3.83;;
35606;SDS011;21729;58.392;15.656;2023-05-10T01:07:47;4.55;;;3.65;;
35606;SDS011;21729;58.392;15.656;2023-05-10T01:10:14;7.22;;;3.60;;
35606;SDS011;21729;58.392;15.656;2023-05-10T01:12:42;4.47;;;3.40;;
35606;SDS011;21729;58.392;15.656;2023-05-10T01:15:11;5.57;;;4.00;;
35606;SDS011;21729;58.392;15.656;2023-05-10T01:17:40;4.75;;;3.85;;
35606;SDS011;21729;58.392;15.656;2023-05-10T01:20:12;5.25;;;3.88;;
35606;SDS011;21729;58.392;15.656;2023-05-10T01:22:48;5.10;;;4.00;;
35606;SDS011;21729;58.392;15.656;2023-05-10T01:32:13;6.43;;;4.20;;
35606;SDS011;21729;58.392;15.656;2023-05-10T01:34:52;5.60;;;4.18;;
35606;SDS011;21729;58.392;15.656;2023-05-10T01:37:27;4.93;;;4.00;;
35606;SDS011;21729;58.392;15.656;2023-05-10T01:40:00;6.88;;;4.30;;
35606;SDS011;21729;58.392;15.656;2023-05-10T01:42:36;5.03;;;3.92;;
35606;SDS011;21729;58.392;15.656;2023-05-10T01:45:11;5.80;;;4.15;;
35606;SDS011;21729;58.392;15.656;2023-05-10T01:47:46;7.60;;;4.33;;
35606;SDS011;21729;58.392;15.656;2023-05-10T01:50:22;5.68;;;4.32;;
35606;SDS011;21729;58.392;15.656;2023-05-10T01:52:55;6.47;;;4.20;;
35606;SDS011;21729;58.392;15.656;2023-05-10T01:55:25;4.65;;;3.85;;
35606;SDS011;21729;58.392;15.656;2023-05-10T01:57:57;5.32;;;4.13;;
35606;SDS011;21729;58.392;15.656;2023-05-10T02:00:29;4.75;;;4.18;;
35606;SDS011;21729;58.392;15.656;2023-05-10T02:02:58;7.50;;;4.20;;
35606;SDS011;21729;58.392;15.656;2023-05-10T02:05:30;5.80;;;4.57;;
35606;SDS011;21729;58.392;15.656;2023-05-10T02:07:59;5.28;;;4.30;;
35606;SDS011;21729;58.392;15.656;2023-05-10T02:10:29;6.05;;;4.47;;
35606;SDS011;21729;58.392;15.656;2023-05-10T02:12:58;6.28;;;4.50;;
35606;SDS011;21729;58.392;15.656;2023-05-10T02:15:27;5.18;;;4.55;;
35606;SDS011;21729;58.392;15.656;2023-05-10T02:17:56;6.13;;;4.30;;
35606;SDS011;21729;58.392;15.656;2023-05-10T02:20:26;5.80;;;4.60;;
35606;SDS011;21729;58.392;15.656;2023-05-10T02:22:54;6.17;;;4.63;;
35606;SDS011;21729;58.392;15.656;2023-05-10T02:25:23;5.50;;;4.43;;
35606;SDS011;21729;58.392;15.656;2023-05-10T02:27:53;7.23;;;4.47;;
35606;SDS011;21729;58.392;15.656;2023-05-10T02:30:22;6.70;;;4.10;;
35606;SDS011;21729;58.392;15.656;2023-05-10T02:32:50;5.00;;;4.50;;
35606;SDS011;21729;58.392;15.656;2023-05-10T02:35:20;6.97;;;4.50;;
35606;SDS011;21729;58.392;15.656;2023-05-10T02:37:49;7.35;;;5.00;;
35606;SDS011;21729;58.392;15.656;2023-05-10T02:40:17;5.03;;;4.30;;
35606;SDS011;21729;58.392;15.656;2023-05-10T02:42:46;8.77;;;4.80;;
35606;SDS011;21729;58.392;15.656;2023-05-10T02:45:17;5.63;;;4.65;;
35606;SDS011;21729;58.392;15.656;2023-05-10T02:47:46;5.67;;;4.43;;
35606;SDS011;21729;58.392;15.656;2023-05-10T02:50:14;6.25;;;4.65;;
35606;SDS011;21729;58.392;15.656;2023-05-10T02:52:43;7.28;;;4.55;;
35606;SDS011;21729;58.392;15.656;2023-05-10T02:55:14;4.88;;;4.20;;
35606;SDS011;21729;58.392;15.656;2023-05-10T02:57:44;5.70;;;4.60;;
35606;SDS011;21729;58.392;15.656;2023-05-10T03:00:17;6.70;;;4.67;;
35606;SDS011;21729;58.392;15.656;2023-05-10T03:02:44;5.68;;;4.32;;
35606;SDS011;21729;58.392;15.656;2023-05-10T03:05:12;5.80;;;4.67;;
35606;SDS011;21729;58.392;15.656;2023-05-10T03:07:39;5.32;;;4.35;;
35606;SDS011;21729;58.392;15.656;2023-05-10T03:10:08;6.93;;;4.75;;
35606;SDS011;21729;58.392;15.656;2023-05-10T03:12:41;5.75;;;4.70;;
35606;SDS011;21729;58.392;15.656;2023-05-10T03:15:25;6.37;;;4.60;;
35606;SDS011;21729;58.392;15.656;2023-05-10T03:18:05;5.50;;;4.60;;
35606;SDS011;21729;58.392;15.656;2023-05-10T03:20:36;5.13;;;4.40;;
35606;SDS011;21729;58.392;15.656;2023-05-10T03:23:11;8.05;;;4.38;;
35606;SDS011;21729;58.392;15.656;2023-05-10T03:25:41;5.30;;;4.35;;
35606;SDS011;21729;58.392;15.656;2023-05-10T03:28:10;6.10;;;4.40;;
35606;SDS011;21729;58.392;15.656;2023-05-10T03:30:38;7.13;;;4.55;;
35606;SDS011;21729;58.392;15.656;2023-05-10T03:33:06;7.38;;;4.57;;
35606;SDS011;21729;58.392;15.656;2023-05-10T03:35:34;6.57;;;4.10;;
35606;SDS011;21729;58.392;15.656;2023-05-10T03:38:01;5.27;;;4.17;;
35606;SDS011;21729;58.392;15.656;2023-05-10T03:40:28;6.82;;;4.18;;
35606;SDS011;21729;58.392;15.656;2023-05-10T03:42:58;6.75;;;4.22;;
35606;SDS011;21729;58.392;15.656;2023-05-10T03:45:25;6.95;;;4.03;;
35606;SDS011;21729;58.392;15.656;2023-05-10T03:47:53;5.90;;;4.05;;
35606;SDS011;21729;58.392;15.656;2023-05-10T03:50:20;6.07;;;4.05;;
35606;SDS011;21729;58.392;15.656;2023-05-10T03:52:47;5.87;;;3.70;;
35606;SDS011;21729;58.392;15.656;2023-05-10T03:55:14;5.07;;;4.00;;
35606;SDS011;21729;58.392;15.656;2023-05-10T03:57:42;6.50;;;3.72;;
35606;SDS011;21729;58.392;15.656;2023-05-10T04:00:11;6.53;;;4.18;;
35606;SDS011;21729;58.392;15.656;2023-05-10T04:02:39;5.43;;;3.88;;
35606;SDS011;21729;58.392;15.656;2023-05-10T04:05:06;4.80;;;3.60;;
35606;SDS011;21729;58.392;15.656;2023-05-10T04:07:34;4.63;;;3.70;;
35606;SDS011;21729;58.392;15.656;2023-05-10T04:10:01;5.20;;;4.00;;
35606;SDS011;21729;58.392;15.656;2023-05-10T04:12:29;6.22;;;3.67;;
35606;SDS011;21729;58.392;15.656;2023-05-10T04:14:56;5.53;;;3.83;;
35606;SDS011;21729;58.392;15.656;2023-05-10T04:17:25;6.47;;;3.90;;
35606;SDS011;21729;58.392;15.656;2023-05-10T04:19:52;7.35;;;3.70;;
35606;SDS011;21729;58.392;15.656;2023-05-10T04:22:19;5.60;;;3.78;;
35606;SDS011;21729;58.392;15.656;2023-05-10T04:24:46;5.53;;;3.83;;
35606;SDS011;21729;58.392;15.656;2023-05-10T04:27:14;6.88;;;3.65;;
35606;SDS011;21729;58.392;15.656;2023-05-10T04:29:41;4.95;;;3.67;;
35606;SDS011;21729;58.392;15.656;2023-05-10T04:32:08;6.10;;;4.22;;
35606;SDS011;21729;58.392;15.656;2023-05-10T04:34:37;5.68;;;3.97;;
35606;SDS011;21729;58.392;15.656;2023-05-10T04:37:04;6.00;;;3.72;;
35606;SDS011;21729;58.392;15.656;2023-05-10T04:39:32;6.30;;;3.83;;
35606;SDS011;21729;58.392;15.656;2023-05-10T04:42:00;7.70;;;4.20;;
35606;SDS011;21729;58.392;15.656;2023-05-10T04:44:27;6.90;;;3.90;;
35606;SDS011;21729;58.392;15.656;2023-05-10T04:46:55;5.63;;;3.72;;
35606;SDS011;21729;58.392;15.656;2023-05-10T04:49:22;4.63;;;3.83;;
35606;SDS011;21729;58.392;15.656;2023-05-10T04:51:50;6.88;;;3.80;;
35606;SDS011;21729;58.392;15.656;2023-05-10T04:54:17;5.82;;;3.60;;
35606;SDS011;21729;58.392;15.656;2023-05-10T04:56:44;5.20;;;3.53;;
35606;SDS011;21729;58.392;15.656;2023-05-10T04:59:12;5.97;;;3.60;;
35606;SDS011;21729;58.392;15.656;2023-05-10T05:01:39;5.05;;;3.72;;
35606;SDS011;21729;58.392;15.656;2023-05-10T05:04:06;5.93;;;3.65;;
35606;SDS011;21729;58.392;15.656;2023-05-10T05:06:33;7.75;;;3.72;;
35606;SDS011;21729;58.392;15.656;2023-05-10T05:09:02;6.18;;;3.67;;
35606;SDS011;21729;58.392;15.656;2023-05-10T05:11:29;4.70;;;3.50;;
35606;SDS011;21729;58.392;15.656;2023-05-10T05:13:56;5.47;;;3.40;;
35606;SDS011;21729;58.392;15.656;2023-05-10T05:16:24;3.95;;;3.47;;
35606;SDS011;21729;58.392;15.656;2023-05-10T05:18:52;5.95;;;3.50;;
35606;SDS011;21729;58.392;15.656;2023-05-10T05:21:22;6.18;;;3.22;;
35606;SDS011;21729;58.392;15.656;2023-05-10T05:23:51;5.33;;;3.30;;
35606;SDS011;21729;58.392;15.656;2023-05-10T05:26:20;5.33;;;3.27;;
35606;SDS011;21729;58.392;15.656;2023-05-10T05:28:47;5.25;;;3.30;;
35606;SDS011;21729;58.392;15.656;2023-05-10T05:31:17;5.00;;;3.20;;
35606;SDS011;21729;58.392;15.656;2023-05-10T05:33:44;5.20;;;3.20;;
35606;SDS011;21729;58.392;15.656;2023-05-10T05:36:12;4.32;;;2.88;;
35606;SDS011;21729;58.392;15.656;2023-05-10T05:38:39;4.43;;;2.97;;
35606;SDS011;21729;58.392;15.656;2023-05-10T05:41:06;5.00;;;2.80;;
35606;SDS011;21729;58.392;15.656;2023-05-10T05:43:34;6.57;;;2.90;;
35606;SDS011;21729;58.392;15.656;2023-05-10T05:46:02;6.22;;;2.90;;
35606;SDS011;21729;58.392;15.656;2023-05-10T05:48:29;5.28;;;2.83;;
35606;SDS011;21729;58.392;15.656;2023-05-10T05:50:56;4.55;;;2.55;;
35606;SDS011;21729;58.392;15.656;2023-05-10T05:53:24;4.65;;;2.60;;
35606;SDS011;21729;58.392;15.656;2023-05-10T05:55:51;2.83;;;2.40;;
35606;SDS011;21729;58.392;15.656;2023-05-10T05:58:20;3.38;;;2.53;;
35606;SDS011;21729;58.392;15.656;2023-05-10T06:00:49;3.70;;;2.55;;
35606;SDS011;21729;58.392;15.656;2023-05-10T06:03:17;6.00;;;2.47;;
35606;SDS011;21729;58.392;15.656;2023-05-10T06:05:44;4.20;;;2.20;;
35606;SDS011;21729;58.392;15.656;2023-05-10T06:08:11;4.63;;;2.20;;
35606;SDS011;21729;58.392;15.656;2023-05-10T06:10:38;4.30;;;2.25;;
35606;SDS011;21729;58.392;15.656;2023-05-10T06:13:05;4.10;;;2.03;;
35606;SDS011;21729;58.392;15.656;2023-05-10T06:15:32;3.78;;;1.90;;
35606;SDS011;21729;58.392;15.656;2023-05-10T06:18:01;2.88;;;2.15;;
35606;SDS011;21729;58.392;15.656;2023-05-10T06:20:28;4.57;;;2.35;;
35606;SDS011;21729;58.392;15.656;2023-05-10T06:22:56;3.37;;;2.10;;
35606;SDS011;21729;58.392;15.656;2023-05-10T06:25:24;5.32;;;2.05;;
35606;SDS011;21729;58.392;15.656;2023-05-10T06:27:51;2.72;;;1.90;;
35606;SDS011;21729;58.392;15.656;2023-05-10T06:30:23;3.20;;;2.00;;
35606;SDS011;21729;58.392;15.656;2023-05-10T06:32:52;2.78;;;1.80;;
35606;SDS011;21729;58.392;15.656;2023-05-10T06:35:22;3.80;;;1.90;;
35606;SDS011;21729;58.392;15.656;2023-05-10T06:37:49;5.82;;;1.80;;
35606;SDS011;21729;58.392;15.656;2023-05-10T06:40:17;3.60;;;1.85;;
35606;SDS011;21729;58.392;15.656;2023-05-10T06:42:44;2.53;;;1.90;;
35606;SDS011;21729;58.392;15.656;2023-05-10T06:45:12;4.68;;;1.90;;
35606;SDS011;21729;58.392;15.656;2023-05-10T06:47:39;5.50;;;2.65;;
35606;SDS011;21729;58.392;15.656;2023-05-10T06:50:07;2.85;;;1.95;;
35606;SDS011;21729;58.392;15.656;2023-05-10T06:52:36;4.07;;;2.20;;
35606;SDS011;21729;58.392;15.656;2023-05-10T06:55:04;3.28;;;2.00;;
35606;SDS011;21729;58.392;15.656;2023-05-10T06:57:32;3.58;;;1.90;;
35606;SDS011;21729;58.392;15.656;2023-05-10T06:59:59;2.75;;;1.75;;
35606;SDS011;21729;58.392;15.656;2023-05-10T07:02:29;4.63;;;1.88;;
35606;SDS011;21729;58.392;15.656;2023-05-10T07:04:56;3.55;;;1.98;;
35606;SDS011;21729;58.392;15.656;2023-05-10T07:07:23;2.17;;;1.70;;
35606;SDS011;21729;58.392;15.656;2023-05-10T07:09:51;4.68;;;1.80;;
35606;SDS011;21729;58.392;15.656;2023-05-10T07:12:19;2.30;;;1.70;;
35606;SDS011;21729;58.392;15.656;2023-05-10T07:14:46;2.63;;;1.50;;
35606;SDS011;21729;58.392;15.656;2023-05-10T07:17:13;4.00;;;1.80;;
35606;SDS011;21729;58.392;15.656;2023-05-10T07:19:40;3.10;;;1.80;;
35606;SDS011;21729;58.392;15.656;2023-05-10T07:22:07;2.53;;;1.60;;
35606;SDS011;21729;58.392;15.656;2023-05-10T07:24:34;2.97;;;1.85;;
35606;SDS011;21729;58.392;15.656;2023-05-10T07:27:03;2.63;;;1.65;;
35606;SDS011;21729;58.392;15.656;2023-05-10T07:29:31;2.78;;;1.60;;
35606;SDS011;21729;58.392;15.656;2023-05-10T07:31:59;1.90;;;1.63;;
35606;SDS011;21729;58.392;15.656;2023-05-10T07:34:26;5.43;;;2.20;;
35606;SDS011;21729;58.392;15.656;2023-05-10T07:36:55;6.35;;;2.00;;
35606;SDS011;21729;58.392;15.656;2023-05-10T07:39:22;2.00;;;1.77;;
35606;SDS011;21729;58.392;15.656;2023-05-10T07:41:49;5.15;;;1.83;;
35606;SDS011;21729;58.392;15.656;2023-05-10T07:44:18;4.45;;;1.95;;
35606;SDS011;21729;58.392;15.656;2023-05-10T07:46:45;1.98;;;1.58;;
35606;SDS011;21729;58.392;15.656;2023-05-10T07:49:13;2.42;;;1.85;;
35606;SDS011;21729;58.392;15.656;2023-05-10T07:51:40;3.95;;;2.00;;
35606;SDS011;21729;58.392;15.656;2023-05-10T07:54:08;2.65;;;1.98;;
35606;SDS011;21729;58.392;15.656;2023-05-10T07:56:35;3.38;;;1.60;;
35606;SDS011;21729;58.392;15.656;2023-05-10T07:59:03;7.05;;;1.90;;
35606;SDS011;21729;58.392;15.656;2023-05-10T08:01:33;2.63;;;1.90;;
35606;SDS011;21729;58.392;15.656;2023-05-10T08:04:01;2.97;;;2.00;;
35606;SDS011;21729;58.392;15.656;2023-05-10T08:06:28;5.65;;;2.40;;
35606;SDS011;21729;58.392;15.656;2023-05-10T08:08:55;3.97;;;2.00;;
35606;SDS011;21729;58.392;15.656;2023-05-10T08:11:23;2.60;;;1.83;;
35606;SDS011;21729;58.392;15.656;2023-05-10T08:13:50;3.35;;;2.10;;
35606;SDS011;21729;58.392;15.656;2023-05-10T08:16:18;2.38;;;2.00;;
35606;SDS011;21729;58.392;15.656;2023-05-10T08:18:46;3.60;;;1.63;;
35606;SDS011;21729;58.392;15.656;2023-05-10T08:21:14;3.60;;;2.60;;
35606;SDS011;21729;58.392;15.656;2023-05-10T08:23:41;2.90;;;1.73;;
35606;SDS011;21729;58.392;15.656;2023-05-10T08:26:09;3.50;;;1.80;;
35606;SDS011;21729;58.392;15.656;2023-05-10T08:28:36;2.03;;;1.88;;
35606;SDS011;21729;58.392;15.656;2023-05-10T08:31:04;2.05;;;1.70;;
35606;SDS011;21729;58.392;15.656;2023-05-10T08:33:31;2.95;;;1.63;;
35606;SDS011;21729;58.392;15.656;2023-05-10T08:35:59;7.00;;;1.50;;
35606;SDS011;21729;58.392;15.656;2023-05-10T08:38:27;4.07;;;1.77;;
35606;SDS011;21729;58.392;15.656;2023-05-10T08:40:54;8.53;;;2.33;;
35606;SDS011;21729;58.392;15.656;2023-05-10T08:43:24;2.55;;;1.73;;
35606;SDS011;21729;58.392;15.656;2023-05-10T08:45:54;2.33;;;1.30;;
35606;SDS011;21729;58.392;15.656;2023-05-10T08:48:22;1.48;;;1.38;;
35606;SDS011;21729;58.392;15.656;2023-05-10T08:50:52;4.05;;;1.80;;
35606;SDS011;21729;58.392;15.656;2023-05-10T08:53:22;4.43;;;1.83;;
35606;SDS011;21729;58.392;15.656;2023-05-10T08:55:52;2.47;;;1.80;;
35606;SDS011;21729;58.392;15.656;2023-05-10T08:58:19;2.83;;;1.70;;
35606;SDS011;21729;58.392;15.656;2023-05-10T09:00:48;1.80;;;1.50;;
35606;SDS011;21729;58.392;15.656;2023-05-10T09:03:17;3.65;;;1.90;;
35606;SDS011;21729;58.392;15.656;2023-05-10T09:05:44;4.18;;;1.60;;
35606;SDS011;21729;58.392;15.656;2023-05-10T09:08:12;4.38;;;1.73;;
35606;SDS011;21729;58.392;15.656;2023-05-10T09:10:44;2.80;;;1.50;;
35606;SDS011;21729;58.392;15.656;2023-05-10T09:13:12;1.85;;;1.63;;
35606;SDS011;21729;58.392;15.656;2023-05-10T09:15:43;3.92;;;1.70;;
35606;SDS011;21729;58.392;15.656;2023-05-10T09:18:11;1.88;;;1.40;;
35606;SDS011;21729;58.392;15.656;2023-05-10T09:20:38;3.38;;;1.60;;
35606;SDS011;21729;58.392;15.656;2023-05-10T09:23:06;2.25;;;1.52;;
35606;SDS011;21729;58.392;15.656;2023-05-10T09:25:33;1.80;;;1.70;;
35606;SDS011;21729;58.392;15.656;2023-05-10T09:28:02;3.17;;;1.40;;
35606;SDS011;21729;58.392;15.656;2023-05-10T09:30:33;2.92;;;1.60;;
35606;SDS011;21729;58.392;15.656;2023-05-10T09:33:00;4.17;;;1.80;;
35606;SDS011;21729;58.392;15.656;2023-05-10T09:35:28;2.60;;;1.60;;
35606;SDS011;21729;58.392;15.656;2023-05-10T09:37:57;2.38;;;1.60;;
35606;SDS011;21729;58.392;15.656;2023-05-10T09:40:29;3.47;;;1.70;;
35606;SDS011;21729;58.392;15.656;2023-05-10T09:42:57;3.80;;;1.90;;
35606;SDS011;21729;58.392;15.656;2023-05-10T09:45:27;3.35;;;1.60;;
35606;SDS011;21729;58.392;15.656;2023-05-10T09:47:55;5.40;;;1.70;;
35606;SDS011;21729;58.392;15.656;2023-05-10T09:50:23;1.92;;;1.50;;
35606;SDS011;21729;58.392;15.656;2023-05-10T09:52:51;3.88;;;1.63;;
35606;SDS011;21729;58.392;15.656;2023-05-10T09:55:20;3.80;;;1.70;;
35606;SDS011;21729;58.392;15.656;2023-05-10T09:57:48;1.65;;;1.50;;
35606;SDS011;21729;58.392;15.656;2023-05-10T10:00:17;2.47;;;1.65;;
35606;SDS011;21729;58.392;15.656;2023-05-10T10:02:47;2.67;;;1.60;;
35606;SDS011;21729;58.392;15.656;2023-05-10T10:05:20;3.00;;;1.80;;
35606;SDS011;21729;58.392;15.656;2023-05-10T10:07:47;3.10;;;1.77;;
35606;SDS011;21729;58.392;15.656;2023-05-10T10:10:15;3.20;;;1.70;;
35606;SDS011;21729;58.392;15.656;2023-05-10T10:12:43;3.45;;;1.73;;
35606;SDS011;21729;58.392;15.656;2023-05-10T10:15:10;1.73;;;1.63;;
35606;SDS011;21729;58.392;15.656;2023-05-10T10:17:38;1.95;;;1.83;;
35606;SDS011;21729;58.392;15.656;2023-05-10T10:20:09;5.47;;;1.50;;
35606;SDS011;21729;58.392;15.656;2023-05-10T10:22:36;2.65;;;1.88;;
35606;SDS011;21729;58.392;15.656;2023-05-10T10:25:04;2.15;;;1.50;;
35606;SDS011;21729;58.392;15.656;2023-05-10T10:27:35;7.82;;;1.90;;
35606;SDS011;21729;58.392;15.656;2023-05-10T10:30:12;3.92;;;1.90;;
35606;SDS011;21729;58.392;15.656;2023-05-10T10:32:54;6.82;;;1.90;;
35606;SDS011;21729;58.392;15.656;2023-05-10T10:35:41;10.35;;;2.03;;
35606;SDS011;21729;58.392;15.656;2023-05-10T10:38:10;2.22;;;1.90;;
35606;SDS011;21729;58.392;15.656;2023-05-10T10:40:39;3.00;;;1.80;;
35606;SDS011;21729;58.392;15.656;2023-05-10T10:46:10;1.85;;;1.50;;
35606;SDS011;21729;58.392;15.656;2023-05-10T10:48:39;2.40;;;1.42;;
35606;SDS011;21729;58.392;15.656;2023-05-10T10:51:08;4.47;;;1.70;;
35606;SDS011;21729;58.392;15.656;2023-05-10T10:53:36;3.03;;;1.67;;
35606;SDS011;21729;58.392;15.656;2023-05-10T10:56:06;4.40;;;1.70;;
35606;SDS011;21729;58.392;15.656;2023-05-10T10:58:35;3.95;;;1.70;;
35606;SDS011;21729;58.392;15.656;2023-05-10T11:01:12;2.40;;;1.80;;
35606;SDS011;21729;58.392;15.656;2023-05-10T11:03:41;2.95;;;1.88;;
35606;SDS011;21729;58.392;15.656;2023-05-10T11:06:43;3.67;;;2.17;;
35606;SDS011;21729;58.392;15.656;2023-05-10T11:09:11;2.10;;;1.70;;
35606;SDS011;21729;58.392;15.656;2023-05-10T11:11:48;2.50;;;1.75;;
35606;SDS011;21729;58.392;15.656;2023-05-10T11:14:19;2.90;;;1.70;;
35606;SDS011;21729;58.392;15.656;2023-05-10T11:16:47;5.20;;;2.00;;
35606;SDS011;21729;58.392;15.656;2023-05-10T11:19:15;2.10;;;1.85;;
35606;SDS011;21729;58.392;15.656;2023-05-10T11:21:47;4.03;;;1.90;;
35606;SDS011;21729;58.392;15.656;2023-05-10T11:24:16;2.60;;;1.50;;
35606;SDS011;21729;58.392;15.656;2023-05-10T11:26:45;2.20;;;1.90;;
35606;SDS011;21729;58.392;15.656;2023-05-10T11:29:12;4.43;;;1.80;;
35606;SDS011;21729;58.392;15.656;2023-05-10T11:31:43;2.63;;;1.58;;
35606;SDS011;21729;58.392;15.656;2023-05-10T11:34:11;3.22;;;1.60;;
35606;SDS011;21729;58.392;15.656;2023-05-10T11:36:51;2.83;;;1.90;;
35606;SDS011;21729;58.392;15.656;2023-05-10T11:39:20;4.03;;;1.67;;
35606;SDS011;21729;58.392;15.656;2023-05-10T11:41:47;2.20;;;1.60;;
35606;SDS011;21729;58.392;15.656;2023-05-10T11:44:15;2.63;;;2.00;;
35606;SDS011;21729;58.392;15.656;2023-05-10T11:46:43;2.83;;;1.60;;
35606;SDS011;21729;58.392;15.656;2023-05-10T11:49:10;2.40;;;1.60;;
35606;SDS011;21729;58.392;15.656;2023-05-10T11:51:38;2.40;;;1.77;;
35606;SDS011;21729;58.392;15.656;2023-05-10T11:54:10;4.18;;;1.85;;
35606;SDS011;21729;58.392;15.656;2023-05-10T11:56:39;2.20;;;1.67;;
35606;SDS011;21729;58.392;15.656;2023-05-10T11:59:08;5.82;;;1.98;;
35606;SDS011;21729;58.392;15.656;2023-05-10T12:01:35;4.97;;;1.80;;
35606;SDS011;21729;58.392;15.656;2023-05-10T12:04:02;2.15;;;1.75;;
35606;SDS011;21729;58.392;15.656;2023-05-10T12:06:30;2.72;;;1.70;;
35606;SDS011;21729;58.392;15.656;2023-05-10T12:09:05;2.17;;;1.88;;
35606;SDS011;21729;58.392;15.656;2023-05-10T12:11:36;3.53;;;1.80;;
35606;SDS011;21729;58.392;15.656;2023-05-10T12:14:05;3.23;;;2.10;;
35606;SDS011;21729;58.392;15.656;2023-05-10T12:16:32;3.05;;;1.80;;
35606;SDS011;21729;58.392;15.656;2023-05-10T12:19:00;2.10;;;1.63;;
35606;SDS011;21729;58.392;15.656;2023-05-10T12:21:27;2.10;;;1.73;;
35606;SDS011;21729;58.392;15.656;2023-05-10T12:23:58;2.85;;;1.60;;
35606;SDS011;21729;58.392;15.656;2023-05-10T12:26:27;3.80;;;1.70;;
35606;SDS011;21729;58.392;15.656;2023-05-10T12:29:11;2.45;;;1.90;;
35606;SDS011;21729;58.392;15.656;2023-05-10T12:31:48;2.80;;;1.73;;
35606;SDS011;21729;58.392;15.656;2023-05-10T12:34:22;2.72;;;1.70;;
35606;SDS011;21729;58.392;15.656;2023-05-10T12:36:53;3.95;;;2.08;;
35606;SDS011;21729;58.392;15.656;2023-05-10T12:39:20;3.08;;;1.45;;
35606;SDS011;21729;58.392;15.656;2023-05-10T12:41:48;1.75;;;1.63;;
35606;SDS011;21729;58.392;15.656;2023-05-10T12:44:16;2.47;;;1.50;;
35606;SDS011;21729;58.392;15.656;2023-05-10T12:46:44;3.90;;;2.20;;
35606;SDS011;21729;58.392;15.656;2023-05-10T12:49:12;2.03;;;1.80;;
35606;SDS011;21729;58.392;15.656;2023-05-10T12:51:39;2.47;;;1.58;;
35606;SDS011;21729;58.392;15.656;2023-05-10T12:54:06;3.40;;;1.67;;
35606;SDS011;21729;58.392;15.656;2023-05-10T12:56:33;2.58;;;1.67;;
35606;SDS011;21729;58.392;15.656;2023-05-10T12:59:02;2.60;;;1.60;;
35606;SDS011;21729;58.392;15.656;2023-05-10T13:01:30;2.58;;;1.50;;
35606;SDS011;21729;58.392;15.656;2023-05-10T13:03:58;4.07;;;1.57;;
35606;SDS011;21729;58.392;15.656;2023-05-10T13:06:25;4.88;;;1.90;;
35606;SDS011;21729;58.392;15.656;2023-05-10T13:08:52;4.70;;;1.60;;
35606;SDS011;21729;58.392;15.656;2023-05-10T13:11:20;2.50;;;1.70;;
35606;SDS011;21729;58.392;15.656;2023-05-10T13:13:47;3.47;;;1.87;;
35606;SDS011;21729;58.392;15.656;2023-05-10T13:16:14;3.47;;;1.85;;
35606;SDS011;21729;58.392;15.656;2023-05-10T13:18:42;4.40;;;1.70;;
35606;SDS011;21729;58.392;15.656;2023-05-10T13:21:09;3.38;;;1.80;;
35606;SDS011;21729;58.392;15.656;2023-05-10T13:23:37;3.70;;;1.90;;
35606;SDS011;21729;58.392;15.656;2023-05-10T13:26:04;2.70;;;1.77;;
35606;SDS011;21729;58.392;15.656;2023-05-10T13:28:31;2.58;;;1.60;;
35606;SDS011;21729;58.392;15.656;2023-05-10T13:30:58;3.08;;;1.60;;
35606;SDS011;21729;58.392;15.656;2023-05-10T13:33:26;3.03;;;1.93;;
35606;SDS011;21729;58.392;15.656;2023-05-10T13:35:54;2.83;;;1.60;;
35606;SDS011;21729;58.392;15.656;2023-05-10T13:38:22;2.85;;;1.60;;
35606;SDS011;21729;58.392;15.656;2023-05-10T13:40:50;1.90;;;1.70;;
35606;SDS011;21729;58.392;15.656;2023-05-10T13:43:18;1.73;;;1.48;;
35606;SDS011;21729;58.392;15.656;2023-05-10T13:45:45;6.30;;;1.83;;
35606;SDS011;21729;58.392;15.656;2023-05-10T13:48:12;2.72;;;1.70;;
35606;SDS011;21729;58.392;15.656;2023-05-10T13:50:40;2.20;;;1.77;;
35606;SDS011;21729;58.392;15.656;2023-05-10T13:53:08;5.13;;;1.85;;
35606;SDS011;21729;58.392;15.656;2023-05-10T13:55:36;4.72;;;1.77;;
35606;SDS011;21729;58.392;15.656;2023-05-10T13:58:04;2.15;;;1.65;;
35606;SDS011;21729;58.392;15.656;2023-05-10T14:00:31;2.72;;;1.38;;
35606;SDS011;21729;58.392;15.656;2023-05-10T14:02:59;3.97;;;1.65;;
35606;SDS011;21729;58.392;15.656;2023-05-10T14:05:26;2.43;;;1.70;;
35606;SDS011;21729;58.392;15.656;2023-05-10T14:07:53;1.90;;;1.70;;
35606;SDS011;21729;58.392;15.656;2023-05-10T14:10:22;3.40;;;1.75;;
35606;SDS011;21729;58.392;15.656;2023-05-10T14:12:51;5.00;;;1.70;;
35606;SDS011;21729;58.392;15.656;2023-05-10T14:15:18;4.38;;;1.75;;
35606;SDS011;21729;58.392;15.656;2023-05-10T14:17:47;2.00;;;1.80;;
35606;SDS011;21729;58.392;15.656;2023-05-10T14:20:15;4.10;;;1.95;;
35606;SDS011;21729;58.392;15.656;2023-05-10T14:22:43;2.47;;;1.65;;
35606;SDS011;21729;58.392;15.656;2023-05-10T14:25:10;2.00;;;1.53;;
35606;SDS011;21729;58.392;15.656;2023-05-10T14:27:40;2.92;;;1.77;;
35606;SDS011;21729;58.392;15.656;2023-05-10T14:30:08;2.00;;;1.60;;
35606;SDS011;21729;58.392;15.656;2023-05-10T14:32:38;3.03;;;1.85;;
35606;SDS011;21729;58.392;15.656;2023-05-10T14:35:06;4.13;;;1.80;;
35606;SDS011;21729;58.392;15.656;2023-05-10T14:37:34;3.33;;;1.73;;
35606;SDS011;21729;58.392;15.656;2023-05-10T14:40:02;3.80;;;1.65;;
35606;SDS011;21729;58.392;15.656;2023-05-10T14:42:35;3.15;;;2.10;;
35606;SDS011;21729;58.392;15.656;2023-05-10T14:45:05;4.10;;;1.92;;
35606;SDS011;21729;58.392;15.656;2023-05-10T14:47:34;4.03;;;1.77;;
35606;SDS011;21729;58.392;15.656;2023-05-10T14:50:01;2.28;;;1.70;;
35606;SDS011;21729;58.392;15.656;2023-05-10T14:52:29;1.83;;;1.50;;